createdAt,value
2024-05-09T00:00:43.678Z,100.00
2024-05-09T00:03:12.255Z,100.00
2024-05-09T00:05:44.448Z,100.00
2024-05-09T00:08:12.600Z,100.00
2024-05-09T00:10:41.054Z,100.00
2024-05-09T00:13:10.734Z,100.00
2024-05-09T00:15:39.367Z,100.00
2024-05-09T00:18:07.973Z,100.00
2024-05-09T00:20:39.553Z,100.00
2024-05-09T00:23:11.978Z,100.00
2024-05-09T00:25:42.850Z,100.00
2024-05-09T00:28:11.972Z,100.00
2024-05-09T00:30:39.379Z,100.00
2024-05-09T00:33:08.715Z,100.00
2024-05-09T00:35:37.774Z,100.00
2024-05-09T00:38:05.308Z,100.00
2024-05-09T00:40:40.981Z,100.00
2024-05-09T00:43:14.681Z,100.00
2024-05-09T00:45:44.087Z,100.00
2024-05-09T00:48:15.159Z,100.00
2024-05-09T00:50:46.558Z,100.00
2024-05-09T00:53:17.395Z,100.00
2024-05-09T00:55:46.215Z,100.00
2024-05-09T00:58:32.051Z,100.00
2024-05-09T01:01:01.313Z,100.00
2024-05-09T01:03:29.195Z,100.00
2024-05-09T01:05:56.785Z,100.00
2024-05-09T01:08:24.301Z,100.00
2024-05-09T01:10:51.796Z,100.00
2024-05-09T01:13:19.228Z,100.00
2024-05-09T01:15:48.249Z,100.00
2024-05-09T01:18:16.033Z,100.00
2024-05-09T01:20:45.196Z,100.00
2024-05-09T01:23:15.646Z,100.00
2024-05-09T01:25:46.111Z,100.00
2024-05-09T01:28:15.267Z,100.00
2024-05-09T01:30:42.726Z,100.00
2024-05-09T01:33:11.835Z,100.00
2024-05-09T01:35:42.138Z,100.00
2024-05-09T01:38:14.288Z,100.00
2024-05-09T01:40:41.776Z,100.00
2024-05-09T01:43:10.871Z,100.00
2024-05-09T01:45:40.252Z,100.00
2024-05-09T01:48:08.951Z,100.00
2024-05-09T01:50:40.700Z,100.00
2024-05-09T01:53:11.852Z,100.00
2024-05-09T01:55:39.439Z,100.00
2024-05-09T01:58:07.453Z,100.00
2024-05-09T02:00:40.245Z,100.00
2024-05-09T02:03:13.966Z,100.00
2024-05-09T02:05:45.408Z,100.00
2024-05-09T02:08:18.234Z,100.00
2024-05-09T02:10:47.808Z,100.00
2024-05-09T02:13:17.192Z,100.00
2024-05-09T02:15:45.097Z,100.00
2024-05-09T02:18:13.542Z,100.00
2024-05-09T02:20:42.380Z,100.00
2024-05-09T02:23:10.878Z,100.00
2024-05-09T02:25:38.261Z,100.00
2024-05-09T02:28:06.127Z,100.00
2024-05-09T02:33:04.057Z,100.00
2024-05-09T02:35:31.532Z,100.00
2024-05-09T02:37:58.972Z,100.00
2024-05-09T02:40:35.054Z,100.00
2024-05-09T02:43:05.376Z,100.00
2024-05-09T02:45:33.205Z,100.00
2024-05-09T02:48:01.870Z,100.00
2024-05-09T02:50:36.853Z,100.00
2024-05-09T02:53:11.811Z,100.00
2024-05-09T02:55:39.793Z,100.00
2024-05-09T02:58:08.342Z,100.00
2024-05-09T03:00:39.811Z,100.00
2024-05-09T03:03:12.470Z,100.00
2024-05-09T03:05:42.979Z,100.00
2024-05-09T03:08:11.055Z,100.00
2024-05-09T03:10:39.436Z,100.00
2024-05-09T03:13:13.258Z,100.00
2024-05-09T03:15:42.058Z,100.00
2024-05-09T03:18:09.971Z,100.00
2024-05-09T03:20:38.381Z,100.00
2024-05-09T03:23:09.776Z,100.00
2024-05-09T03:25:38.909Z,100.00
2024-05-09T03:28:06.947Z,100.00
2024-05-09T03:30:41.175Z,100.00
2024-05-09T03:33:12.916Z,100.00
2024-05-09T03:35:41.368Z,100.00
2024-05-09T03:38:09.151Z,100.00
2024-05-09T03:40:44.929Z,100.00
2024-05-09T03:43:13.458Z,100.00
2024-05-09T03:45:40.975Z,100.00
2024-05-09T03:48:08.909Z,100.00
2024-05-09T03:50:37.240Z,100.00
2024-05-09T03:53:05.637Z,100.00
2024-05-09T03:55:32.978Z,100.00
2024-05-09T03:58:00.356Z,100.00
2024-05-09T04:00:35.532Z,100.00
2024-05-09T04:03:08.732Z,100.00
2024-05-09T04:05:40.904Z,100.00
2024-05-09T04:08:10.224Z,100.00
2024-05-09T04:10:38.073Z,100.00
2024-05-09T04:13:05.767Z,100.00
2024-05-09T04:15:33.404Z,100.00
2024-05-09T04:18:01.937Z,100.00
2024-05-09T04:20:37.512Z,100.00
2024-05-09T04:23:11.690Z,100.00
2024-05-09T04:25:45.107Z,100.00
2024-05-09T04:28:14.173Z,100.00
2024-05-09T04:30:42.506Z,100.00
2024-05-09T04:33:12.753Z,100.00
2024-05-09T04:35:43.556Z,100.00
2024-05-09T04:38:12.573Z,100.00
2024-05-09T04:40:40.062Z,100.00
2024-05-09T04:43:14.740Z,100.00
2024-05-09T04:45:42.528Z,100.00
2024-05-09T04:48:10.019Z,100.00
2024-05-09T04:50:39.248Z,100.00
2024-05-09T04:53:09.898Z,100.00
2024-05-09T04:55:39.919Z,100.00
2024-05-09T04:58:11.868Z,100.00
2024-05-09T05:00:40.795Z,100.00
2024-05-09T05:03:13.839Z,100.00
2024-05-09T05:05:45.165Z,100.00
2024-05-09T05:08:16.735Z,100.00
2024-05-09T05:10:45.638Z,100.00
2024-05-09T05:13:20.873Z,100.00
2024-05-09T05:15:58.212Z,100.00
2024-05-09T05:18:28.010Z,100.00
2024-05-09T05:20:57.090Z,100.00
2024-05-09T05:23:25.265Z,100.00
2024-05-09T05:25:55.482Z,100.00
2024-05-09T05:28:23.717Z,100.00
2024-05-09T05:30:51.223Z,100.00
2024-05-09T05:33:19.505Z,100.00
2024-05-09T05:35:47.321Z,100.00
2024-05-09T05:38:14.713Z,100.00
2024-05-09T05:40:42.180Z,100.00
2024-05-09T05:43:16.185Z,100.00
2024-05-09T05:45:44.976Z,100.00
2024-05-09T05:48:14.063Z,100.00
2024-05-09T05:50:41.882Z,100.00
2024-05-09T05:53:10.690Z,100.00
2024-05-09T05:55:39.722Z,100.00
2024-05-09T05:58:14.795Z,100.00
2024-05-09T06:00:42.856Z,100.00
2024-05-09T06:03:13.552Z,100.00
2024-05-09T06:05:46.210Z,100.00
2024-05-09T06:08:14.022Z,100.00
2024-05-09T06:10:42.280Z,100.00
2024-05-09T06:13:13.976Z,100.00
2024-05-09T06:15:43.242Z,100.00
2024-05-09T06:18:12.333Z,100.00
2024-05-09T06:20:43.640Z,100.00
2024-05-09T06:23:13.139Z,100.00
2024-05-09T06:25:42.220Z,100.00
2024-05-09T06:28:10.353Z,100.00
2024-05-09T06:30:40.695Z,100.00
2024-05-09T06:33:12.819Z,100.00
2024-05-09T06:35:42.530Z,100.00
2024-05-09T06:38:10.208Z,100.00
2024-05-09T06:40:41.567Z,100.00
2024-05-09T06:43:15.753Z,100.00
2024-05-09T06:45:46.143Z,100.00
2024-05-09T06:48:13.682Z,100.00
2024-05-09T06:50:41.644Z,100.00
2024-05-09T06:53:09.355Z,100.00
2024-05-09T06:55:37.841Z,100.00
2024-05-09T06:58:06.937Z,100.00
2024-05-09T07:00:39.210Z,100.00
2024-05-09T07:03:11.196Z,100.00
2024-05-09T07:05:40.258Z,100.00
2024-05-09T07:08:08.423Z,100.00
2024-05-09T07:10:36.861Z,100.00
2024-05-09T07:13:12.292Z,100.00
2024-05-09T07:15:40.451Z,100.00
2024-05-09T07:18:13.044Z,100.00
2024-05-09T07:20:41.220Z,100.00
2024-05-09T07:23:10.094Z,100.00
2024-05-09T07:25:38.121Z,100.00
2024-05-09T07:28:06.071Z,100.00
2024-05-09T07:30:34.737Z,100.00
2024-05-09T07:33:03.986Z,100.00
2024-05-09T07:35:31.806Z,100.00
2024-05-09T07:37:59.564Z,100.00
2024-05-09T07:40:34.810Z,100.00
2024-05-09T07:43:04.926Z,100.00
2024-05-09T07:52:23.262Z,100.00
2024-05-09T07:53:39.536Z,100.00
2024-05-09T07:56:11.764Z,100.00
2024-05-09T07:58:39.589Z,100.00
2024-05-09T08:01:06.993Z,100.00
2024-05-09T08:03:34.830Z,100.00
2024-05-09T08:06:02.290Z,100.00
2024-05-09T08:08:29.569Z,100.00
2024-05-09T08:10:57.135Z,100.00
2024-05-09T08:13:24.480Z,100.00
2024-05-09T08:15:52.644Z,100.00
2024-05-09T08:18:20.427Z,100.00
2024-05-09T08:20:49.922Z,100.00
2024-05-09T08:23:17.890Z,100.00
2024-05-09T08:25:45.086Z,100.00
2024-05-09T08:28:12.953Z,100.00
2024-05-09T08:30:40.557Z,100.00
2024-05-09T08:33:08.248Z,100.00
2024-05-09T08:35:36.451Z,100.00
2024-05-09T08:38:04.728Z,100.00
2024-05-09T08:40:35.861Z,100.00
2024-05-09T08:43:10.867Z,100.00
2024-05-09T08:45:43.934Z,100.00
2024-05-09T08:48:15.824Z,100.00
2024-05-09T08:50:45.087Z,100.00
2024-05-09T08:53:14.645Z,100.00
2024-05-09T08:55:43.975Z,100.00
2024-05-09T08:58:21.179Z,100.00
2024-05-09T09:00:49.693Z,100.00
2024-05-09T09:03:19.209Z,100.00
2024-05-09T09:05:57.761Z,100.00
2024-05-09T09:08:26.108Z,100.00
2024-05-09T09:10:57.765Z,100.00
2024-05-09T09:13:26.334Z,100.00
2024-05-09T09:15:57.910Z,100.00
2024-05-09T09:18:30.483Z,100.00
2024-05-09T09:20:58.458Z,100.00
2024-05-09T09:23:29.933Z,100.00
2024-05-09T09:26:01.373Z,100.00
2024-05-09T09:28:29.984Z,100.00
2024-05-09T09:31:04.378Z,100.00
2024-05-09T09:33:32.524Z,100.00
2024-05-09T09:36:02.495Z,100.00
2024-05-09T09:38:32.453Z,100.00
2024-05-09T09:41:05.302Z,100.00
2024-05-09T09:43:33.360Z,100.00
2024-05-09T09:46:02.337Z,100.00
2024-05-09T09:48:32.257Z,100.00
2024-05-09T09:51:00.347Z,100.00
2024-05-09T09:53:28.972Z,100.00
2024-05-09T09:55:56.667Z,100.00
2024-05-09T09:58:24.412Z,100.00
2024-05-09T10:00:51.832Z,100.00
2024-05-09T10:03:19.701Z,100.00
2024-05-09T10:05:48.395Z,100.00
2024-05-09T10:08:18.299Z,100.00
2024-05-09T10:10:50.557Z,100.00
2024-05-09T10:13:20.251Z,96.27
2024-05-09T10:15:54.526Z,100.00
2024-05-09T10:18:28.495Z,100.00
2024-05-09T10:20:59.950Z,100.00
2024-05-09T10:23:27.929Z,100.00
2024-05-09T10:26:06.288Z,100.00
2024-05-09T10:28:36.136Z,100.00
2024-05-09T10:31:15.031Z,100.00
2024-05-09T10:33:48.952Z,100.00
2024-05-09T10:36:26.751Z,100.00
2024-05-09T10:38:56.192Z,98.75
2024-05-09T10:41:23.699Z,100.00
2024-05-09T10:43:52.317Z,100.00
2024-05-09T10:46:20.229Z,97.66
2024-05-09T10:48:50.733Z,90.13
2024-05-09T10:51:19.934Z,92.96
2024-05-09T10:53:48.583Z,88.92
2024-05-09T10:56:16.511Z,92.85
2024-05-09T10:58:44.959Z,84.67
2024-05-09T11:01:13.585Z,84.19
2024-05-09T11:03:41.871Z,94.70
2024-05-09T11:06:11.506Z,90.53
2024-05-09T11:08:39.568Z,86.77
2024-05-09T11:11:08.618Z,90.96
2024-05-09T11:13:38.310Z,87.13
2024-05-09T11:16:07.314Z,87.05
2024-05-09T11:18:38.178Z,87.47
2024-05-09T11:21:13.540Z,88.12
2024-05-09T11:23:41.708Z,92.88
2024-05-09T11:26:10.908Z,96.89
2024-05-09T11:28:38.165Z,99.21
2024-05-09T11:31:10.127Z,100.00
2024-05-09T11:33:39.914Z,99.50
2024-05-09T11:36:08.917Z,97.24
2024-05-09T11:38:36.240Z,96.94
2024-05-09T11:41:05.203Z,93.05
2024-05-09T11:43:33.054Z,93.56
2024-05-09T11:46:01.172Z,89.64
2024-05-09T11:48:28.909Z,91.88
2024-05-09T11:50:56.684Z,92.12
2024-05-09T11:53:24.149Z,88.22
2024-05-09T11:55:51.415Z,84.31
2024-05-09T11:58:19.480Z,84.32
2024-05-09T12:00:47.365Z,84.09
2024-05-09T12:03:14.922Z,82.42
2024-05-09T12:05:42.506Z,82.01
2024-05-09T12:08:10.265Z,82.95
2024-05-09T12:10:37.992Z,81.82
2024-05-09T12:13:06.901Z,80.32
2024-05-09T12:15:38.820Z,79.82
2024-05-09T12:18:08.014Z,78.34
2024-05-09T12:20:39.063Z,77.60
2024-05-09T12:23:10.169Z,79.49
2024-05-09T12:25:39.833Z,80.13
2024-05-09T12:28:08.932Z,83.47
2024-05-09T12:30:41.545Z,85.07
2024-05-09T12:33:13.908Z,83.42
2024-05-09T12:35:44.455Z,80.46
2024-05-09T12:38:15.386Z,81.66
2024-05-09T12:40:43.087Z,80.82
2024-05-09T12:43:11.513Z,78.67
2024-05-09T12:45:40.270Z,80.63
2024-05-09T12:48:12.184Z,80.03
2024-05-09T12:50:40.726Z,81.86
2024-05-09T12:53:08.329Z,81.91
2024-05-09T12:55:44.586Z,83.94
2024-05-09T12:58:21.939Z,80.50
2024-05-09T13:00:51.949Z,80.43
2024-05-09T13:03:19.679Z,83.23
2024-05-09T13:05:47.224Z,81.29
2024-05-09T13:08:14.702Z,82.29
2024-05-09T13:10:41.985Z,82.73
2024-05-09T13:13:10.607Z,84.17
2024-05-09T13:15:38.228Z,84.22
2024-05-09T13:18:07.021Z,86.01
2024-05-09T13:20:36.748Z,87.81
2024-05-09T13:23:06.956Z,86.58
2024-05-09T13:25:35.585Z,86.49
2024-05-09T13:28:07.717Z,90.18
2024-05-09T13:30:40.399Z,86.49
2024-05-09T13:33:11.901Z,88.45
2024-05-09T13:35:48.622Z,89.02
2024-05-09T13:38:20.650Z,91.25
2024-05-09T13:40:49.338Z,94.55
2024-05-09T13:43:18.034Z,95.95
2024-05-09T13:45:45.938Z,96.94
2024-05-09T13:48:13.507Z,97.12
2024-05-09T13:50:41.070Z,97.04
2024-05-09T13:53:09.058Z,100.00
2024-05-09T13:55:40.635Z,100.00
2024-05-09T13:58:09.335Z,100.00
2024-05-09T14:00:45.912Z,100.00
2024-05-09T14:03:18.794Z,100.00
2024-05-09T14:05:48.174Z,100.00
2024-05-09T14:08:17.892Z,100.00
2024-05-09T14:10:49.204Z,100.00
2024-05-09T14:13:17.004Z,100.00
2024-05-09T14:15:45.671Z,100.00
2024-05-09T14:18:14.373Z,100.00
2024-05-09T14:20:42.831Z,100.00
2024-05-09T14:23:10.681Z,100.00
2024-05-09T14:25:42.314Z,100.00
2024-05-09T14:28:12.704Z,100.00
2024-05-09T14:30:42.455Z,100.00
2024-05-09T14:33:10.413Z,100.00
2024-05-09T14:35:38.927Z,100.00
2024-05-09T14:38:07.745Z,100.00
2024-05-09T14:40:41.952Z,100.00
2024-05-09T14:43:13.806Z,100.00
2024-05-09T14:45:42.164Z,100.00
2024-05-09T14:48:10.400Z,100.00
2024-05-09T14:50:39.805Z,100.00
2024-05-09T14:53:10.579Z,100.00
2024-05-09T14:55:42.917Z,100.00
2024-05-09T14:58:12.485Z,100.00
2024-05-09T15:00:46.571Z,100.00
2024-05-09T15:03:22.128Z,100.00
2024-05-09T15:05:51.484Z,100.00
2024-05-09T15:08:19.924Z,100.00
2024-05-09T15:10:49.956Z,100.00
2024-05-09T15:13:19.574Z,100.00
2024-05-09T15:15:47.172Z,100.00
2024-05-09T15:18:15.894Z,100.00
2024-05-09T15:20:44.783Z,100.00
2024-05-09T15:23:12.214Z,100.00
2024-05-09T15:25:39.647Z,100.00
2024-05-09T15:28:08.295Z,100.00
2024-05-09T15:30:36.939Z,100.00
2024-05-09T15:33:05.531Z,100.00
2024-05-09T15:35:33.832Z,100.00
2024-05-09T15:38:03.225Z,100.00
2024-05-09T15:40:37.914Z,100.00
2024-05-09T15:43:10.592Z,100.00
2024-05-09T15:45:40.862Z,100.00
2024-05-09T15:48:10.578Z,100.00
2024-05-09T15:50:41.358Z,100.00
2024-05-09T15:53:12.559Z,100.00
2024-05-09T15:55:41.639Z,100.00
2024-05-09T15:58:10.043Z,100.00
2024-05-09T16:00:41.442Z,100.00
2024-05-09T16:03:12.931Z,100.00
2024-05-09T16:05:43.043Z,100.00
2024-05-09T16:08:11.587Z,100.00
2024-05-09T16:10:48.402Z,100.00
2024-05-09T16:13:17.432Z,100.00
2024-05-09T16:15:45.700Z,100.00
2024-05-09T16:18:13.419Z,100.00
2024-05-09T16:20:42.507Z,100.00
2024-05-09T16:23:11.631Z,100.00
2024-05-09T16:25:47.939Z,100.00
2024-05-09T16:28:15.805Z,100.00
2024-05-09T16:30:43.228Z,100.00
2024-05-09T16:33:11.976Z,100.00
2024-05-09T16:35:39.881Z,100.00
2024-05-09T16:38:07.510Z,100.00
2024-05-09T16:40:39.885Z,100.00
2024-05-09T16:43:10.881Z,100.00
2024-05-09T16:45:44.839Z,100.00
2024-05-09T16:48:14.191Z,100.00
2024-05-09T16:50:41.987Z,100.00
2024-05-09T16:53:09.332Z,100.00
2024-05-09T16:55:36.923Z,100.00
2024-05-09T16:58:05.246Z,100.00
2024-05-09T17:00:40.332Z,100.00
2024-05-09T17:03:15.731Z,100.00
2024-05-09T17:05:46.908Z,100.00
2024-05-09T17:08:15.937Z,100.00
2024-05-09T17:10:43.459Z,100.00
2024-05-09T17:13:10.919Z,100.00
2024-05-09T17:15:38.321Z,100.00
2024-05-09T17:18:07.266Z,100.00
2024-05-09T17:20:37.017Z,100.00
2024-05-09T17:23:14.978Z,100.00
2024-05-09T17:25:43.252Z,100.00
2024-05-09T17:28:11.236Z,100.00
2024-05-09T17:30:40.924Z,100.00
2024-05-09T17:33:11.026Z,100.00
2024-05-09T17:35:39.292Z,100.00
2024-05-09T17:38:07.115Z,100.00
2024-05-09T17:40:36.927Z,100.00
2024-05-09T17:43:08.873Z,100.00
2024-05-09T17:45:39.701Z,100.00
2024-05-09T17:48:09.681Z,100.00
2024-05-09T17:50:38.188Z,100.00
2024-05-09T17:53:06.864Z,100.00
2024-05-09T17:55:35.230Z,100.00
2024-05-09T17:58:04.253Z,100.00
2024-05-09T18:00:38.533Z,100.00
2024-05-09T18:03:10.915Z,100.00
2024-05-09T18:05:39.134Z,100.00
2024-05-09T18:08:07.482Z,100.00
2024-05-09T18:10:38.214Z,100.00
2024-05-09T18:13:08.876Z,100.00
2024-05-09T18:15:36.934Z,100.00
2024-05-09T18:18:05.026Z,100.00
2024-05-09T18:20:41.597Z,100.00
2024-05-09T18:23:18.276Z,100.00
2024-05-09T18:25:47.047Z,100.00
2024-05-09T18:28:15.932Z,100.00
2024-05-09T18:30:43.637Z,100.00
2024-05-09T18:33:11.721Z,100.00
2024-05-09T18:35:42.772Z,100.00
2024-05-09T18:38:10.701Z,100.00
2024-05-09T18:40:39.454Z,100.00
2024-05-09T18:43:09.171Z,100.00
2024-05-09T18:45:38.389Z,100.00
2024-05-09T18:48:08.151Z,100.00
2024-05-09T18:50:39.258Z,100.00
2024-05-09T18:53:13.103Z,100.00
2024-05-09T18:55:44.400Z,100.00
2024-05-09T18:58:11.755Z,100.00
2024-05-09T19:00:41.620Z,100.00
2024-05-09T19:03:15.372Z,100.00
2024-05-09T19:05:44.996Z,100.00
2024-05-09T19:08:15.224Z,100.00
2024-05-09T19:10:43.597Z,100.00
2024-05-09T19:13:13.245Z,100.00
2024-05-09T19:15:42.903Z,100.00
2024-05-09T19:18:13.660Z,100.00
2024-05-09T19:20:41.859Z,100.00
2024-05-09T19:23:11.001Z,100.00
2024-05-09T19:25:38.373Z,100.00
2024-05-09T19:28:06.177Z,100.00
2024-05-09T19:30:39.460Z,100.00
2024-05-09T19:33:12.839Z,100.00
2024-05-09T19:35:41.864Z,100.00
2024-05-09T19:38:09.346Z,100.00
2024-05-09T19:40:37.037Z,100.00
2024-05-09T19:43:06.015Z,100.00
2024-05-09T19:45:35.785Z,100.00
2024-05-09T19:48:05.431Z,100.00
2024-05-09T19:50:41.339Z,100.00
2024-05-09T19:53:13.831Z,100.00
2024-05-09T19:55:41.561Z,100.00
2024-05-09T19:58:09.654Z,100.00
2024-05-09T20:00:40.543Z,100.00
2024-05-09T20:03:12.298Z,100.00
2024-05-09T20:05:40.256Z,100.00
2024-05-09T20:08:08.021Z,100.00
2024-05-09T20:10:36.658Z,100.00
2024-05-09T20:13:06.628Z,100.00
2024-05-09T20:15:37.162Z,100.00
2024-05-09T20:18:05.609Z,100.00
2024-05-09T20:20:39.361Z,100.00
2024-05-09T20:23:13.920Z,100.00
2024-05-09T20:25:42.358Z,100.00
2024-05-09T20:28:29.427Z,100.00
2024-05-09T20:30:56.742Z,100.00
2024-05-09T20:33:24.297Z,100.00
2024-05-09T20:35:55.455Z,100.00
2024-05-09T20:38:22.845Z,100.00
2024-05-09T20:40:50.401Z,100.00
2024-05-09T20:43:18.495Z,100.00
2024-05-09T20:45:46.104Z,100.00
2024-05-09T20:48:13.653Z,100.00
2024-05-09T20:50:42.646Z,100.00
2024-05-09T20:53:12.578Z,100.00
2024-05-09T20:55:41.682Z,100.00
2024-05-09T20:58:09.822Z,100.00
2024-05-09T21:00:40.967Z,100.00
2024-05-09T21:03:12.674Z,100.00
2024-05-09T21:05:41.228Z,100.00
2024-05-09T21:08:09.107Z,100.00
2024-05-09T21:10:37.498Z,100.00
2024-05-09T21:13:06.849Z,100.00
2024-05-09T21:15:35.083Z,100.00
2024-05-09T21:18:02.801Z,100.00
2024-05-09T21:20:32.962Z,100.00
2024-05-09T21:23:02.093Z,100.00
2024-05-09T21:25:30.155Z,100.00
2024-05-09T21:27:57.768Z,100.00
2024-05-09T21:30:37.752Z,100.00
2024-05-09T21:33:11.553Z,100.00
2024-05-09T21:35:41.565Z,100.00
2024-05-09T21:38:09.116Z,100.00
2024-05-09T21:40:38.017Z,100.00
2024-05-09T21:43:09.585Z,100.00
2024-05-09T21:45:37.544Z,100.00
2024-05-09T21:48:06.312Z,100.00
2024-05-09T21:50:39.962Z,100.00
2024-05-09T21:53:12.076Z,100.00
2024-05-09T21:55:39.970Z,100.00
2024-05-09T21:58:07.619Z,100.00
2024-05-09T22:00:38.135Z,100.00
2024-05-09T22:03:08.430Z,100.00
2024-05-09T22:05:37.567Z,100.00
2024-05-09T22:08:06.082Z,100.00
2024-05-09T22:10:35.944Z,100.00
2024-05-09T22:13:06.098Z,100.00
2024-05-09T22:15:39.581Z,100.00
2024-05-09T22:18:09.467Z,100.00
2024-05-09T22:20:44.486Z,100.00
2024-05-09T22:23:14.077Z,100.00
2024-05-09T22:25:42.438Z,100.00
2024-05-09T22:28:10.063Z,100.00
2024-05-09T22:30:39.743Z,100.00
2024-05-09T22:33:09.874Z,100.00
2024-05-09T22:35:39.588Z,100.00
2024-05-09T22:38:07.012Z,100.00
2024-05-09T22:40:45.204Z,100.00
2024-05-09T22:43:21.489Z,100.00
2024-05-09T22:45:51.393Z,100.00
2024-05-09T22:48:19.373Z,100.00
2024-05-09T22:50:47.054Z,100.00
2024-05-09T22:53:14.378Z,100.00
2024-05-09T22:55:42.177Z,100.00
2024-05-09T22:58:09.652Z,100.00
2024-05-09T23:00:37.416Z,100.00
2024-05-09T23:03:04.987Z,100.00
2024-05-09T23:05:32.994Z,100.00
2024-05-09T23:08:04.119Z,100.00
2024-05-09T23:10:36.058Z,100.00
2024-05-09T23:13:08.701Z,100.00
2024-05-09T23:15:38.479Z,100.00
2024-05-09T23:18:07.223Z,100.00
2024-05-09T23:20:38.528Z,100.00
2024-05-09T23:23:09.006Z,100.00
2024-05-09T23:25:37.763Z,100.00
2024-05-09T23:28:06.083Z,100.00
2024-05-09T23:30:38.475Z,100.00
2024-05-09T23:33:13.263Z,100.00
2024-05-09T23:35:44.025Z,100.00
2024-05-09T23:38:11.818Z,100.00
2024-05-09T23:40:41.203Z,100.00
2024-05-09T23:43:11.024Z,100.00
2024-05-09T23:45:38.969Z,100.00
2024-05-09T23:48:07.080Z,100.00
2024-05-09T23:50:37.633Z,100.00
2024-05-09T23:53:08.671Z,100.00
2024-05-09T23:55:37.734Z,100.00
2024-05-09T23:58:05.982Z,100.00
